createdAt,value
2019-03-24T00:00:33.418Z,51.38
2019-03-24T00:01:41.461Z,51.39
2019-03-24T00:02:45.564Z,51.33
2019-03-24T00:03:49.987Z,51.38
2019-03-24T00:04:54.866Z,51.44
2019-03-24T00:05:59.337Z,51.46
2019-03-24T00:07:03.784Z,51.46
2019-03-24T00:08:08.168Z,51.45
2019-03-24T00:09:12.620Z,51.45
2019-03-24T00:10:17.148Z,51.50
2019-03-24T00:11:21.860Z,51.51
2019-03-24T00:12:26.636Z,51.56
2019-03-24T00:13:31.262Z,51.61
2019-03-24T00:14:35.797Z,51.65
2019-03-24T00:15:40.445Z,51.68
2019-03-24T00:16:44.989Z,51.73
2019-03-24T00:17:49.449Z,51.77
2019-03-24T00:18:53.980Z,51.81
2019-03-24T00:19:58.360Z,51.90
2019-03-24T00:21:03.002Z,51.90
2019-03-24T00:22:07.738Z,51.92
2019-03-24T00:23:12.204Z,51.93
2019-03-24T00:24:16.656Z,51.96
2019-03-24T00:25:21.108Z,52.00
2019-03-24T00:26:25.503Z,52.01
2019-03-24T00:27:30.129Z,52.06
2019-03-24T00:28:34.699Z,52.10
2019-03-24T00:29:39.082Z,52.13
2019-03-24T00:30:43.607Z,52.21
2019-03-24T00:31:48.005Z,52.25
2019-03-24T00:32:52.700Z,52.26
2019-03-24T00:33:57.335Z,52.31
2019-03-24T00:35:02.290Z,52.36
2019-03-24T00:36:06.761Z,52.39
2019-03-24T00:37:11.391Z,52.41
2019-03-24T00:38:16.353Z,52.41
2019-03-24T00:39:21.043Z,52.38
2019-03-24T00:40:25.496Z,52.34
2019-03-24T00:41:30.465Z,52.31
2019-03-24T00:42:35.241Z,52.29
2019-03-24T00:43:39.704Z,52.28
2019-03-24T00:44:44.077Z,52.27
2019-03-24T00:45:49.105Z,52.22
2019-03-24T00:46:53.825Z,52.18
2019-03-24T00:47:58.297Z,52.11
2019-03-24T00:49:02.680Z,52.14
2019-03-24T00:50:07.772Z,52.13
2019-03-24T00:51:12.546Z,52.16
2019-03-24T00:52:16.939Z,52.18
2019-03-24T00:53:21.463Z,52.21
2019-03-24T00:54:25.914Z,52.26
2019-03-24T00:55:30.441Z,52.30
2019-03-24T00:56:35.082Z,52.31
2019-03-24T00:57:39.823Z,52.33
2019-03-24T00:58:44.271Z,52.30
2019-03-24T00:59:48.977Z,52.33
2019-03-24T01:00:54.073Z,52.32
2019-03-24T01:01:58.872Z,52.32
2019-03-24T01:03:03.324Z,52.38
2019-03-24T01:04:08.285Z,52.41
2019-03-24T01:05:12.803Z,52.42
2019-03-24T01:06:17.507Z,52.45
2019-03-24T01:07:22.146Z,52.45
2019-03-24T01:08:26.671Z,52.47
2019-03-24T01:09:31.202Z,52.50
2019-03-24T01:10:35.647Z,52.54
2019-03-24T01:11:40.103Z,52.52
2019-03-24T01:12:44.815Z,52.52
2019-03-24T01:13:49.344Z,52.58
2019-03-24T01:14:54.056Z,52.64
2019-03-24T01:15:58.834Z,52.69
2019-03-24T01:17:03.397Z,52.75
2019-03-24T01:18:07.845Z,52.83
2019-03-24T01:19:12.872Z,52.90
2019-03-24T01:20:17.925Z,52.92
2019-03-24T01:21:22.868Z,52.96
2019-03-24T01:22:27.408Z,52.97
2019-03-24T01:23:31.938Z,52.99
2019-03-24T01:24:36.391Z,53.02
2019-03-24T01:25:41.093Z,53.06
2019-03-24T01:26:45.547Z,53.15
2019-03-24T01:27:50.310Z,53.16
2019-03-24T01:28:54.936Z,53.20
2019-03-24T01:29:59.401Z,53.26
2019-03-24T01:31:04.175Z,53.27
2019-03-24T01:32:08.749Z,53.31
2019-03-24T01:33:13.502Z,53.32
2019-03-24T01:34:18.205Z,53.37
2019-03-24T01:35:22.666Z,53.35
2019-03-24T01:36:27.540Z,53.34
2019-03-24T01:37:32.501Z,53.36
2019-03-24T01:38:37.139Z,53.33
2019-03-24T01:39:41.909Z,53.33
2019-03-24T01:40:46.364Z,53.31
2019-03-24T01:41:50.820Z,53.32
2019-03-24T01:42:55.538Z,53.35
2019-03-24T01:43:59.987Z,53.35
2019-03-24T01:45:04.891Z,53.35
2019-03-24T01:46:09.428Z,53.34
2019-03-24T01:47:13.876Z,53.36
2019-03-24T01:48:19.268Z,53.43
2019-03-24T01:49:23.717Z,53.42
2019-03-24T01:50:28.164Z,53.42
2019-03-24T01:51:32.634Z,53.43
2019-03-24T01:52:37.356Z,53.42
2019-03-24T01:53:41.805Z,53.41
2019-03-24T01:54:46.248Z,53.43
2019-03-24T01:55:50.756Z,53.46
2019-03-24T01:56:55.137Z,53.50
2019-03-24T01:57:59.765Z,53.54
2019-03-24T01:59:04.392Z,53.58
2019-03-24T02:00:09.225Z,53.55
2019-03-24T02:01:14.493Z,53.64
2019-03-24T02:02:19.025Z,53.71
2019-03-24T02:03:23.479Z,53.76
2019-03-24T02:04:27.927Z,53.80
2019-03-24T02:05:32.304Z,53.80
2019-03-24T02:06:38.648Z,53.80
2019-03-24T02:07:43.131Z,53.84
2019-03-24T02:08:47.664Z,53.81
2019-03-24T02:09:52.184Z,53.85
2019-03-24T02:10:56.875Z,53.84
2019-03-24T02:12:01.651Z,53.83
2019-03-24T02:13:06.177Z,53.78
2019-03-24T02:14:10.804Z,53.75
2019-03-24T02:15:15.871Z,53.72
2019-03-24T02:16:20.637Z,53.72
2019-03-24T02:17:25.408Z,53.74
2019-03-24T02:18:30.160Z,53.74
2019-03-24T02:19:34.533Z,53.75
2019-03-24T02:20:38.976Z,53.75
2019-03-24T02:21:43.923Z,53.75
2019-03-24T02:22:48.516Z,53.72
2019-03-24T02:23:53.229Z,53.69
2019-03-24T02:24:57.596Z,53.69
2019-03-24T02:26:02.043Z,53.73
2019-03-24T02:27:06.571Z,53.78
2019-03-24T02:28:10.942Z,53.88
2019-03-24T02:29:15.829Z,53.97
2019-03-24T02:30:20.216Z,54.01
2019-03-24T02:31:24.917Z,54.07
2019-03-24T02:32:29.354Z,54.09
2019-03-24T02:33:33.893Z,54.10
2019-03-24T02:34:38.662Z,54.13
2019-03-24T02:35:43.186Z,54.17
2019-03-24T02:36:47.701Z,54.18
2019-03-24T02:37:52.141Z,54.21
2019-03-24T02:38:56.526Z,54.22
2019-03-24T02:40:01.163Z,54.24
2019-03-24T02:41:05.681Z,54.24
2019-03-24T02:42:10.377Z,54.23
2019-03-24T02:43:14.753Z,54.24
2019-03-24T02:44:19.213Z,54.26
2019-03-24T02:45:23.735Z,54.30
2019-03-24T02:46:28.122Z,54.31
2019-03-24T02:47:32.495Z,54.28
2019-03-24T02:48:37.111Z,54.28
2019-03-24T02:49:41.590Z,54.26
2019-03-24T02:50:46.026Z,54.22
2019-03-24T02:51:50.905Z,54.25
2019-03-24T02:52:55.600Z,54.23
2019-03-24T02:53:59.979Z,54.24
2019-03-24T02:55:04.525Z,54.29
2019-03-24T02:56:09.220Z,54.36
2019-03-24T02:57:13.610Z,54.39
2019-03-24T02:58:18.294Z,54.45
2019-03-24T02:59:22.746Z,54.46
2019-03-24T03:00:27.573Z,54.50
2019-03-24T03:01:32.350Z,54.53
2019-03-24T03:02:36.810Z,54.55
2019-03-24T03:03:41.502Z,54.55
2019-03-24T03:04:45.958Z,54.62
2019-03-24T03:05:50.333Z,54.63
2019-03-24T03:06:54.948Z,54.63
2019-03-24T03:07:59.634Z,54.62
2019-03-24T03:09:05.374Z,54.61
2019-03-24T03:10:10.330Z,54.62
2019-03-24T03:11:15.341Z,54.57
2019-03-24T03:12:20.045Z,54.52
2019-03-24T03:13:24.732Z,54.52
2019-03-24T03:14:29.111Z,54.53
2019-03-24T03:15:33.598Z,54.50
2019-03-24T03:16:39.262Z,54.49
2019-03-24T03:17:43.866Z,54.50
2019-03-24T03:18:48.475Z,54.54
2019-03-24T03:19:53.799Z,54.60
2019-03-24T03:20:58.871Z,54.63
2019-03-24T03:22:03.321Z,54.74
2019-03-24T03:23:07.841Z,54.82
2019-03-24T03:24:13.114Z,54.88
2019-03-24T03:25:17.616Z,54.98
2019-03-24T03:26:22.560Z,55.04
2019-03-24T03:27:27.319Z,55.11
2019-03-24T03:28:31.930Z,55.12
2019-03-24T03:29:36.314Z,55.15
2019-03-24T03:30:40.705Z,55.15
2019-03-24T03:31:45.101Z,55.11
2019-03-24T03:32:49.459Z,55.08
2019-03-24T03:33:54.419Z,55.09
2019-03-24T03:34:59.123Z,55.09
2019-03-24T03:36:03.908Z,55.06
2019-03-24T03:37:08.448Z,55.08
2019-03-24T03:38:13.171Z,55.08
2019-03-24T03:39:17.662Z,55.13
2019-03-24T03:40:22.184Z,55.21
2019-03-24T03:41:26.641Z,55.32
2019-03-24T03:42:31.275Z,55.40
2019-03-24T03:43:35.791Z,55.48
2019-03-24T03:44:40.239Z,55.49
2019-03-24T03:45:44.776Z,55.50
2019-03-24T03:46:53.013Z,55.51
2019-03-24T03:47:55.576Z,55.54
2019-03-24T03:49:00.028Z,55.59
2019-03-24T03:50:05.028Z,55.62
2019-03-24T03:51:09.492Z,55.60
2019-03-24T03:52:13.995Z,55.62
2019-03-24T03:53:18.649Z,55.60
2019-03-24T03:54:23.025Z,55.65
2019-03-24T03:55:27.799Z,55.65
2019-03-24T03:56:32.509Z,55.67
2019-03-24T03:57:36.913Z,55.67
2019-03-24T03:58:41.363Z,55.61
2019-03-24T03:59:46.249Z,55.55
2019-03-24T04:00:50.787Z,55.54
2019-03-24T04:01:55.219Z,55.51
2019-03-24T04:02:59.594Z,55.48
2019-03-24T04:04:04.312Z,55.45
2019-03-24T04:05:08.822Z,55.41
2019-03-24T04:06:13.355Z,55.36
2019-03-24T04:07:17.969Z,55.31
2019-03-24T04:08:22.668Z,55.30
2019-03-24T04:09:27.369Z,55.26
2019-03-24T04:10:32.137Z,55.23
2019-03-24T04:11:36.863Z,55.24
2019-03-24T04:12:41.625Z,55.24
2019-03-24T04:13:46.245Z,55.22
2019-03-24T04:14:50.632Z,55.23
2019-03-24T04:15:55.007Z,55.33
2019-03-24T04:17:07.236Z,55.39
2019-03-24T04:18:06.430Z,55.41
2019-03-24T04:19:10.782Z,55.40
2019-03-24T04:20:15.473Z,55.39
2019-03-24T04:21:20.009Z,55.38
2019-03-24T04:22:24.624Z,55.38
2019-03-24T04:23:29.010Z,55.37
2019-03-24T04:24:33.367Z,55.40
2019-03-24T04:25:37.996Z,55.51
2019-03-24T04:26:42.382Z,55.60
2019-03-24T04:27:47.157Z,55.77
2019-03-24T04:28:52.029Z,55.93
2019-03-24T04:29:56.401Z,56.04
2019-03-24T04:31:01.204Z,56.15
2019-03-24T04:32:05.979Z,56.17
2019-03-24T04:33:10.363Z,56.16
2019-03-24T04:34:15.241Z,56.18
2019-03-24T04:35:19.924Z,56.18
2019-03-24T04:36:24.811Z,56.17
2019-03-24T04:37:29.276Z,56.23
2019-03-24T04:38:33.892Z,56.27
2019-03-24T04:39:38.589Z,56.31
2019-03-24T04:40:43.265Z,56.34
2019-03-24T04:41:48.198Z,56.34
2019-03-24T04:42:52.655Z,56.30
2019-03-24T04:43:57.028Z,56.24
2019-03-24T04:45:02.298Z,56.23
2019-03-24T04:46:06.733Z,56.18
2019-03-24T04:47:16.619Z,56.14
2019-03-24T04:48:17.215Z,56.08
2019-03-24T04:49:21.915Z,56.01
2019-03-24T04:50:26.287Z,56.03
2019-03-24T04:51:30.665Z,56.03
2019-03-24T04:52:35.121Z,55.98
2019-03-24T04:53:39.987Z,55.96
2019-03-24T04:54:44.429Z,55.92
2019-03-24T04:55:49.127Z,55.92
2019-03-24T04:56:53.814Z,55.88
2019-03-24T04:57:58.285Z,55.88
2019-03-24T04:59:02.889Z,55.86
2019-03-24T05:00:08.135Z,55.88
2019-03-24T05:01:12.751Z,55.89
2019-03-24T05:02:17.213Z,55.88
2019-03-24T05:03:21.589Z,55.90
2019-03-24T05:04:26.102Z,55.89
2019-03-24T05:05:31.126Z,55.90
2019-03-24T05:06:35.695Z,55.92
2019-03-24T05:07:41.210Z,55.95
2019-03-24T05:08:46.424Z,55.93
2019-03-24T05:09:50.949Z,55.94
2019-03-24T05:10:55.458Z,55.92
2019-03-24T05:11:59.893Z,55.93
2019-03-24T05:13:04.662Z,55.96
2019-03-24T05:14:09.029Z,55.94
2019-03-24T05:15:13.482Z,55.97
2019-03-24T05:16:18.345Z,55.95
2019-03-24T05:17:27.362Z,55.96
2019-03-24T05:18:29.149Z,55.98
2019-03-24T05:19:33.763Z,55.96
2019-03-24T05:20:38.199Z,55.99
2019-03-24T05:21:42.916Z,56.00
2019-03-24T05:22:47.411Z,56.03
2019-03-24T05:23:51.777Z,56.04
2019-03-24T05:24:56.684Z,56.07
2019-03-24T05:26:01.050Z,56.11
2019-03-24T05:27:05.815Z,56.18
2019-03-24T05:28:10.772Z,56.28
2019-03-24T05:29:15.148Z,56.33
2019-03-24T05:30:19.908Z,56.39
2019-03-24T05:31:24.282Z,56.39
2019-03-24T05:32:28.723Z,56.39
2019-03-24T05:33:33.112Z,56.35
2019-03-24T05:34:37.854Z,56.35
2019-03-24T05:35:42.781Z,56.33
2019-03-24T05:36:47.400Z,56.30
2019-03-24T05:37:51.852Z,56.23
2019-03-24T05:38:56.546Z,56.16
2019-03-24T05:40:01.242Z,56.10
2019-03-24T05:41:05.759Z,56.01
2019-03-24T05:42:10.452Z,55.94
2019-03-24T05:43:15.328Z,55.87
2019-03-24T05:44:19.945Z,55.79
2019-03-24T05:45:24.703Z,55.72
2019-03-24T05:46:29.071Z,55.59
2019-03-24T05:47:37.313Z,55.49
2019-03-24T05:48:39.623Z,55.41
2019-03-24T05:49:44.248Z,55.32
2019-03-24T05:50:48.890Z,55.29
2019-03-24T05:51:53.248Z,55.26
2019-03-24T05:52:57.881Z,55.25
2019-03-24T05:54:02.257Z,55.23
2019-03-24T05:55:06.951Z,55.20
2019-03-24T05:56:11.563Z,55.15
2019-03-24T05:57:16.078Z,55.12
2019-03-24T05:58:21.047Z,55.17
2019-03-24T05:59:25.686Z,55.14
2019-03-24T06:00:30.131Z,55.12
2019-03-24T06:01:34.999Z,55.18
2019-03-24T06:02:39.765Z,55.28
2019-03-24T06:03:44.476Z,55.47
2019-03-24T06:04:49.162Z,55.59
2019-03-24T06:05:53.539Z,55.70
2019-03-24T06:06:57.921Z,55.78
2019-03-24T06:08:02.861Z,55.88
2019-03-24T06:09:07.880Z,55.96
2019-03-24T06:10:12.495Z,56.01
2019-03-24T06:11:17.262Z,56.04
2019-03-24T06:12:21.637Z,56.05
2019-03-24T06:13:26.040Z,56.00
2019-03-24T06:14:30.903Z,55.91
2019-03-24T06:15:36.184Z,55.85
2019-03-24T06:16:40.964Z,55.82
2019-03-24T06:17:48.090Z,55.78
2019-03-24T06:18:52.082Z,55.76
2019-03-24T06:19:56.532Z,55.74
2019-03-24T06:21:01.052Z,55.73
2019-03-24T06:22:05.570Z,55.74
2019-03-24T06:23:09.944Z,55.76
2019-03-24T06:24:14.971Z,55.75
2019-03-24T06:25:19.346Z,55.73
2019-03-24T06:26:23.705Z,55.69
2019-03-24T06:27:28.903Z,55.67
2019-03-24T06:28:33.276Z,55.64
2019-03-24T06:29:37.663Z,55.58
2019-03-24T06:30:42.035Z,55.54
2019-03-24T06:31:46.402Z,55.47
2019-03-24T06:32:50.847Z,55.44
2019-03-24T06:33:55.308Z,55.43
2019-03-24T06:34:59.918Z,55.38
2019-03-24T06:36:04.358Z,55.31
2019-03-24T06:37:08.721Z,55.23
2019-03-24T06:38:13.414Z,55.12
2019-03-24T06:39:17.807Z,55.04
2019-03-24T06:40:22.496Z,54.95
2019-03-24T06:41:26.943Z,54.84
2019-03-24T06:42:31.877Z,54.76
2019-03-24T06:43:36.241Z,54.68
2019-03-24T06:44:40.875Z,54.61
2019-03-24T06:45:45.324Z,54.56
2019-03-24T06:46:49.769Z,54.48
2019-03-24T06:47:58.246Z,54.38
2019-03-24T06:49:00.966Z,54.33
2019-03-24T06:50:05.621Z,54.23
2019-03-24T06:51:10.152Z,54.17
2019-03-24T06:52:15.203Z,54.11
2019-03-24T06:53:19.901Z,54.04
2019-03-24T06:54:24.344Z,54.02
2019-03-24T06:55:29.069Z,53.96
2019-03-24T06:56:33.520Z,53.93
2019-03-24T06:57:38.279Z,53.91
2019-03-24T06:58:42.922Z,53.90
2019-03-24T06:59:47.315Z,53.90
2019-03-24T07:00:51.828Z,53.84
2019-03-24T07:01:56.459Z,53.86
2019-03-24T07:03:00.906Z,53.83
2019-03-24T07:04:05.423Z,53.81
2019-03-24T07:05:10.608Z,53.84
2019-03-24T07:06:15.465Z,53.85
2019-03-24T07:07:20.148Z,53.88
2019-03-24T07:08:24.519Z,53.88
2019-03-24T07:09:28.971Z,53.90
2019-03-24T07:10:33.364Z,53.92
2019-03-24T07:11:38.078Z,53.95
2019-03-24T07:12:42.822Z,53.99
2019-03-24T07:13:47.192Z,54.00
2019-03-24T07:14:51.817Z,54.04
2019-03-24T07:15:56.279Z,54.06
2019-03-24T07:17:00.651Z,54.06
2019-03-24T07:18:08.737Z,54.10
2019-03-24T07:19:11.196Z,54.09
2019-03-24T07:20:15.739Z,54.08
2019-03-24T07:21:20.379Z,54.11
2019-03-24T07:22:24.768Z,54.08
2019-03-24T07:23:29.145Z,54.02
2019-03-24T07:24:33.594Z,54.03
2019-03-24T07:25:38.055Z,54.03
2019-03-24T07:26:42.492Z,54.08
2019-03-24T07:27:47.115Z,54.14
2019-03-24T07:28:51.563Z,54.19
2019-03-24T07:29:56.255Z,54.25
2019-03-24T07:31:00.714Z,54.29
2019-03-24T07:32:05.422Z,54.33
2019-03-24T07:33:10.038Z,54.37
2019-03-24T07:34:14.657Z,54.42
2019-03-24T07:35:19.030Z,54.43
2019-03-24T07:36:23.415Z,54.43
2019-03-24T07:37:28.047Z,54.41
2019-03-24T07:38:32.414Z,54.40
2019-03-24T07:39:36.794Z,54.35
2019-03-24T07:40:41.243Z,54.31
2019-03-24T07:41:45.647Z,54.33
2019-03-24T07:42:50.330Z,54.35
2019-03-24T07:43:55.026Z,54.39
2019-03-24T07:44:59.526Z,54.42
2019-03-24T07:46:03.993Z,54.45
2019-03-24T07:47:13.676Z,54.50
2019-03-24T07:48:19.323Z,54.48
2019-03-24T07:49:24.066Z,54.44
2019-03-24T07:50:28.755Z,54.46
2019-03-24T07:51:33.820Z,54.43
2019-03-24T07:52:38.257Z,54.39
2019-03-24T07:53:42.630Z,54.36
2019-03-24T07:54:47.075Z,54.36
2019-03-24T07:55:51.851Z,54.39
2019-03-24T07:56:56.374Z,54.42
2019-03-24T07:58:00.740Z,54.45
2019-03-24T07:59:05.256Z,54.46
2019-03-24T08:00:11.491Z,54.51
2019-03-24T08:01:16.193Z,54.52
2019-03-24T08:02:20.642Z,54.58
2019-03-24T08:03:25.350Z,54.60
2019-03-24T08:04:29.797Z,54.59
2019-03-24T08:05:34.416Z,54.57
2019-03-24T08:06:39.044Z,54.54
2019-03-24T08:07:43.491Z,54.50
2019-03-24T08:08:48.232Z,54.47
2019-03-24T08:09:52.850Z,54.50
2019-03-24T08:10:57.600Z,54.57
2019-03-24T08:12:02.554Z,54.58
2019-03-24T08:13:07.074Z,54.55
2019-03-24T08:14:11.692Z,54.53
2019-03-24T08:15:16.218Z,54.49
2019-03-24T08:16:20.607Z,54.46
2019-03-24T08:17:25.045Z,54.44
2019-03-24T08:18:30.339Z,54.35
2019-03-24T08:19:34.817Z,54.28
2019-03-24T08:20:39.607Z,54.14
2019-03-24T08:21:44.311Z,53.98
2019-03-24T08:22:48.826Z,53.85
2019-03-24T08:23:53.507Z,53.74
2019-03-24T08:24:57.880Z,53.66
2019-03-24T08:26:02.402Z,53.56
2019-03-24T08:27:06.936Z,53.50
2019-03-24T08:28:14.499Z,53.41
2019-03-24T08:29:24.098Z,53.29
2019-03-24T08:30:37.552Z,53.14
2019-03-24T08:31:45.582Z,52.93
2019-03-24T08:32:55.938Z,52.69
2019-03-24T08:34:00.397Z,52.48
2019-03-24T08:35:04.967Z,52.27
2019-03-24T08:36:09.417Z,52.05
2019-03-24T08:37:13.876Z,51.84
2019-03-24T08:38:18.317Z,51.72
2019-03-24T08:39:22.691Z,51.56
2019-03-24T08:40:27.137Z,51.46
2019-03-24T08:41:32.091Z,51.32
2019-03-24T08:42:36.612Z,51.26
2019-03-24T08:43:41.243Z,51.23
2019-03-24T08:44:46.046Z,51.20
2019-03-24T08:45:50.468Z,51.25
2019-03-24T08:46:55.587Z,51.27
2019-03-24T08:48:00.358Z,51.31
2019-03-24T08:49:04.885Z,51.31
2019-03-24T08:50:09.347Z,51.33
2019-03-24T08:51:13.715Z,51.35
2019-03-24T08:52:18.432Z,51.41
2019-03-24T08:53:22.811Z,51.38
2019-03-24T08:54:27.186Z,51.37
2019-03-24T08:55:31.978Z,51.39
2019-03-24T08:56:36.430Z,51.45
2019-03-24T08:57:41.063Z,51.48
2019-03-24T08:58:45.927Z,51.51
2019-03-24T08:59:50.627Z,51.53
2019-03-24T09:00:55.003Z,51.59
2019-03-24T09:01:59.623Z,51.56
2019-03-24T09:03:04.354Z,51.56
2019-03-24T09:04:08.807Z,51.62
2019-03-24T09:05:13.341Z,51.67
2019-03-24T09:06:17.867Z,51.68
2019-03-24T09:07:22.563Z,51.66
2019-03-24T09:08:27.286Z,51.78
2019-03-24T09:09:31.701Z,51.83
2019-03-24T09:10:36.148Z,51.81
2019-03-24T09:11:40.526Z,51.74
2019-03-24T09:12:45.169Z,51.65
2019-03-24T09:13:50.122Z,51.57
2019-03-24T09:14:54.584Z,51.49
2019-03-24T09:15:59.031Z,51.46
2019-03-24T09:17:03.656Z,51.47
2019-03-24T09:18:08.213Z,51.32
2019-03-24T09:19:12.748Z,51.25
2019-03-24T09:20:17.275Z,51.31
2019-03-24T09:21:21.726Z,51.69
2019-03-24T09:22:26.204Z,51.60
2019-03-24T09:23:30.577Z,51.42
2019-03-24T09:24:35.025Z,51.46
2019-03-24T09:25:39.717Z,51.30
2019-03-24T09:26:44.098Z,51.22
2019-03-24T09:27:48.566Z,51.17
2019-03-24T09:28:52.945Z,50.91
2019-03-24T09:29:57.716Z,50.76
2019-03-24T09:31:02.194Z,50.61
2019-03-24T09:32:06.725Z,50.57
2019-03-24T09:33:11.508Z,50.46
2019-03-24T09:34:15.952Z,50.40
2019-03-24T09:35:20.327Z,50.35
2019-03-24T09:36:25.022Z,50.29
2019-03-24T09:37:29.401Z,50.25
2019-03-24T09:38:33.872Z,50.47
2019-03-24T09:39:38.323Z,50.38
2019-03-24T09:40:42.856Z,50.37
2019-03-24T09:41:47.492Z,50.38
2019-03-24T09:42:54.281Z,50.41
2019-03-24T09:43:58.948Z,50.71
2019-03-24T09:45:03.523Z,50.51
2019-03-24T09:46:10.094Z,50.18
2019-03-24T09:47:14.397Z,50.01
2019-03-24T09:48:18.854Z,49.97
2019-03-24T09:49:23.695Z,49.94
2019-03-24T09:50:28.510Z,50.39
2019-03-24T09:51:32.884Z,50.50
2019-03-24T09:52:37.401Z,50.34
2019-03-24T09:53:42.131Z,50.22
2019-03-24T09:54:46.998Z,49.99
2019-03-24T09:56:51.051Z,49.76
2019-03-24T09:57:55.872Z,49.66
2019-03-24T09:59:00.472Z,49.53
2019-03-24T10:00:05.548Z,49.54
2019-03-24T10:01:10.290Z,49.52
2019-03-24T10:02:14.977Z,49.39
2019-03-24T10:03:19.360Z,49.29
2019-03-24T10:04:23.820Z,49.24
2019-03-24T10:05:28.402Z,49.19
2019-03-24T10:06:32.851Z,49.11
2019-03-24T10:07:37.703Z,48.86
2019-03-24T10:08:47.059Z,48.75
2019-03-24T10:09:48.606Z,48.70
2019-03-24T10:10:53.906Z,48.58
2019-03-24T10:11:58.408Z,48.33
2019-03-24T10:13:03.266Z,48.03
2019-03-24T10:14:07.734Z,48.22
2019-03-24T10:15:12.765Z,48.31
2019-03-24T10:16:18.318Z,48.15
2019-03-24T10:17:22.702Z,47.99
2019-03-24T10:18:27.406Z,47.87
2019-03-24T10:19:32.278Z,47.71
2019-03-24T10:20:36.734Z,47.55
2019-03-24T10:21:41.225Z,47.23
2019-03-24T10:22:45.696Z,46.80
2019-03-24T10:23:50.740Z,46.80
2019-03-24T10:24:55.390Z,46.86
2019-03-24T10:26:00.007Z,46.87
2019-03-24T10:27:04.460Z,46.96
2019-03-24T10:28:08.928Z,47.08
2019-03-24T10:29:13.320Z,47.08
2019-03-24T10:30:18.090Z,47.01
2019-03-24T10:31:22.562Z,46.76
2019-03-24T10:32:27.010Z,46.26
2019-03-24T10:33:32.841Z,46.21
2019-03-24T10:34:37.281Z,46.25
2019-03-24T10:35:41.653Z,45.74
2019-03-24T10:36:46.028Z,45.75
2019-03-24T10:37:50.480Z,45.72
2019-03-24T10:38:55.134Z,45.58
2019-03-24T10:39:59.551Z,45.23
2019-03-24T10:41:03.961Z,45.20
2019-03-24T10:42:08.723Z,45.32
2019-03-24T10:43:13.181Z,45.31
2019-03-24T10:44:17.764Z,45.19
2019-03-24T10:45:22.219Z,45.10
2019-03-24T10:46:26.881Z,44.94
2019-03-24T10:47:31.367Z,44.81
2019-03-24T10:48:35.741Z,44.66
2019-03-24T10:49:40.210Z,44.48
2019-03-24T10:50:44.914Z,44.25
2019-03-24T10:51:49.629Z,44.12
2019-03-24T10:52:54.163Z,43.82
2019-03-24T10:53:58.660Z,43.71
2019-03-24T10:55:03.226Z,43.91
2019-03-24T10:56:07.626Z,43.87
2019-03-24T10:57:12.084Z,43.93
2019-03-24T10:58:16.543Z,43.92
2019-03-24T10:59:21.017Z,43.75
2019-03-24T11:00:37.327Z,43.66
2019-03-24T11:01:41.716Z,43.87
2019-03-24T11:02:46.091Z,44.00
2019-03-24T11:03:50.476Z,44.03
2019-03-24T11:04:54.921Z,43.90
2019-03-24T11:05:59.414Z,43.72
2019-03-24T11:07:03.942Z,43.62
2019-03-24T11:08:08.624Z,43.34
2019-03-24T11:09:13.277Z,42.85
2019-03-24T11:10:18.105Z,42.80
2019-03-24T11:11:22.780Z,43.01
2019-03-24T11:12:27.165Z,43.02
2019-03-24T11:13:31.806Z,43.14
2019-03-24T11:14:42.295Z,43.09
2019-03-24T11:15:47.071Z,43.06
2019-03-24T11:16:51.747Z,42.91
2019-03-24T11:17:56.485Z,42.81
2019-03-24T11:19:01.287Z,42.87
2019-03-24T11:20:06.618Z,42.82
2019-03-24T11:21:11.033Z,42.85
2019-03-24T11:22:15.737Z,42.79
2019-03-24T11:23:20.193Z,42.68
2019-03-24T11:24:25.534Z,42.66
2019-03-24T11:25:30.070Z,42.51
2019-03-24T11:26:34.554Z,42.47
2019-03-24T11:27:39.603Z,42.42
2019-03-24T11:28:44.387Z,42.30
2019-03-24T11:29:48.925Z,42.25
2019-03-24T11:30:53.621Z,42.16
2019-03-24T11:31:57.991Z,41.95
2019-03-24T11:33:02.711Z,41.95
2019-03-24T11:34:07.470Z,41.87
2019-03-24T11:35:12.779Z,41.67
2019-03-24T11:36:17.502Z,41.34
2019-03-24T11:37:22.169Z,41.41
2019-03-24T11:38:27.048Z,41.53
2019-03-24T11:39:31.426Z,41.48
2019-03-24T11:40:36.116Z,41.45
2019-03-24T11:41:40.540Z,41.46
2019-03-24T11:42:45.155Z,41.48
2019-03-24T11:43:49.888Z,41.45
2019-03-24T11:44:54.357Z,41.31
2019-03-24T11:45:59.118Z,41.09
2019-03-24T11:47:03.502Z,41.23
2019-03-24T11:48:08.121Z,41.15
2019-03-24T11:49:19.546Z,41.18
2019-03-24T11:50:23.993Z,41.31
2019-03-24T11:51:28.529Z,41.20
2019-03-24T11:52:33.550Z,41.22
2019-03-24T11:53:38.130Z,41.12
2019-03-24T11:54:42.506Z,41.15
2019-03-24T11:55:47.144Z,40.93
2019-03-24T11:56:51.848Z,40.78
2019-03-24T11:58:05.357Z,40.85
2019-03-24T11:59:03.138Z,40.63
2019-03-24T12:00:09.028Z,40.44
2019-03-24T12:01:13.568Z,40.34
2019-03-24T12:02:18.350Z,40.13
2019-03-24T12:03:25.227Z,40.47
2019-03-24T12:04:29.315Z,40.69
2019-03-24T12:05:34.115Z,40.82
2019-03-24T12:06:38.825Z,40.83
2019-03-24T12:07:43.330Z,40.77
2019-03-24T12:08:47.864Z,40.90
2019-03-24T12:09:52.573Z,40.80
2019-03-24T12:10:57.280Z,40.31
2019-03-24T12:12:01.745Z,40.32
2019-03-24T12:13:06.280Z,40.16
2019-03-24T12:14:11.245Z,40.45
2019-03-24T12:15:15.769Z,40.76
2019-03-24T12:16:20.555Z,40.90
2019-03-24T12:17:25.083Z,40.98
2019-03-24T12:18:29.526Z,41.08
2019-03-24T12:19:34.390Z,41.14
2019-03-24T12:20:39.093Z,40.34
2019-03-24T12:21:43.801Z,40.56
2019-03-24T12:22:48.267Z,40.63
2019-03-24T12:23:52.713Z,40.51
2019-03-24T12:24:57.416Z,40.46
2019-03-24T12:26:01.915Z,40.49
2019-03-24T12:27:06.374Z,40.51
2019-03-24T12:28:11.149Z,40.43
2019-03-24T12:29:15.594Z,40.38
2019-03-24T12:30:20.568Z,40.48
2019-03-24T12:31:24.960Z,40.09
2019-03-24T12:32:29.413Z,40.29
2019-03-24T12:33:34.199Z,40.37
2019-03-24T12:34:38.569Z,40.25
2019-03-24T12:35:42.933Z,39.74
2019-03-24T12:36:47.328Z,39.88
2019-03-24T12:37:51.957Z,39.91
2019-03-24T12:38:56.328Z,39.63
2019-03-24T12:40:01.025Z,39.95
2019-03-24T12:41:05.973Z,40.11
2019-03-24T12:42:10.939Z,40.04
2019-03-24T12:43:19.705Z,40.15
2019-03-24T12:44:21.492Z,40.23
2019-03-24T12:45:25.875Z,40.18
2019-03-24T12:46:30.580Z,40.17
2019-03-24T12:47:35.586Z,40.10
2019-03-24T12:48:40.252Z,39.55
2019-03-24T12:49:45.137Z,39.38
2019-03-24T12:50:49.757Z,39.48
2019-03-24T12:51:54.284Z,39.53
2019-03-24T12:52:58.758Z,39.50
2019-03-24T12:54:03.202Z,39.48
2019-03-24T12:55:08.582Z,39.39
2019-03-24T12:56:13.360Z,39.48
2019-03-24T12:57:18.383Z,39.53
2019-03-24T12:58:23.001Z,39.51
2019-03-24T12:59:27.706Z,39.45
2019-03-24T13:00:39.423Z,39.33
2019-03-24T13:01:43.788Z,39.28
2019-03-24T13:02:48.518Z,39.31
2019-03-24T13:03:52.979Z,39.27
2019-03-24T13:04:57.433Z,39.33
2019-03-24T13:06:01.973Z,39.33
2019-03-24T13:07:06.438Z,39.30
2019-03-24T13:08:29.198Z,39.32
2019-03-24T13:09:34.064Z,39.36
2019-03-24T13:10:38.760Z,39.21
2019-03-24T13:11:43.292Z,39.29
2019-03-24T13:12:47.847Z,39.04
2019-03-24T13:13:52.322Z,38.87
2019-03-24T13:14:56.718Z,39.14
2019-03-24T13:16:01.100Z,39.36
2019-03-24T13:17:05.869Z,39.45
2019-03-24T13:18:10.656Z,39.44
2019-03-24T13:19:15.267Z,39.24
2019-03-24T13:20:31.862Z,39.23
2019-03-24T13:21:25.968Z,39.37
2019-03-24T13:22:30.715Z,39.27
2019-03-24T13:23:35.421Z,39.20
2019-03-24T13:24:39.866Z,39.61
2019-03-24T13:25:44.642Z,39.93
2019-03-24T13:26:49.175Z,40.01
2019-03-24T13:27:53.887Z,40.07
2019-03-24T13:28:58.345Z,40.01
2019-03-24T13:30:02.929Z,40.05
2019-03-24T13:31:07.625Z,40.04
2019-03-24T13:32:12.090Z,40.01
2019-03-24T13:33:16.622Z,39.92
2019-03-24T13:34:21.390Z,40.01
2019-03-24T13:35:25.920Z,39.89
2019-03-24T13:36:30.302Z,39.91
2019-03-24T13:37:34.667Z,39.86
2019-03-24T13:38:39.217Z,39.83
2019-03-24T13:39:43.589Z,39.73
2019-03-24T13:40:48.049Z,39.53
2019-03-24T13:41:52.606Z,39.58
2019-03-24T13:42:57.315Z,39.60
2019-03-24T13:44:02.023Z,39.69
2019-03-24T13:45:06.669Z,39.76
2019-03-24T13:46:14.204Z,39.76
2019-03-24T13:47:18.974Z,39.58
2019-03-24T13:48:23.356Z,39.37
2019-03-24T13:49:27.811Z,39.37
2019-03-24T13:50:32.178Z,39.38
2019-03-24T13:51:36.999Z,39.33
2019-03-24T13:52:41.528Z,39.26
2019-03-24T13:53:46.319Z,39.28
2019-03-24T13:54:51.212Z,39.39